Airfield :
LOGIN :

Register | Disclaimer

   EN    FR    IT 

 










Legend :    VFR   Marginal VFR   IFR   Intensive IFR   Very Intensive IFR
Visi :
Ceiling :
>= 8 km
>= 3000ft
5 to 8 km
1000 to 3000 ft
1500m to 5 km
500 to 1000 ft
800 to 1500m
200 to 500 ft
< 800m
< 200 ft
Symbols :   Thunderstorms  Fog  Heavy snow  Heavy precipitations  Wind > 20 kt
SIGMETs :     Misc.  Thunderstorms  Icing  Turbulence  Mountain Waves  Volcanic Ashes







- Airport Elevation : 1325 ft
- IATA code : EBU
- Download approach charts


LFMH - St-Etienne Boutheon

CURRENT METAR :
  • 251430Z AUTO 02004KT 9999 -RA BKN009/// BKN014/// OVC076/// ///TCU 15/14 Q1020 TEMPO SHRA BKN014 BKN032TCU

EXPIRED METARs :
  • 251400Z AUTO 02004KT 9999 -RA SCT009/// SCT024/// BKN058/// ///TCU 15/14 Q1020 TEMPO 32015G25KT 4000 -TSRA BKN014 BKN035CB OVC080
  • 251330Z AUTO 04003KT 9999 RA SCT009/// SCT017/// BKN054/// ///TCU 15/14 Q1020 TEMPO 32015G25KT 4000 -TSRA BKN014 BKN035CB OVC080
  • 251300Z AUTO 35006KT 320V020 7000 RA FEW044/// BKN058/// BKN070/// ///TCU 15/14 Q1020 TEMPO 32015G25KT 4000 -TSRA BKN014 BKN035CB OVC080
  • 251230Z AUTO 34008KT 310V020 9999 RA VCTS FEW037/// BKN054/// OVC084/// ///CB 15/13 Q1020 TEMPO 32015G25KT 4000 -TSRA BKN014 BKN035CB OVC080
  • 251200Z AUTO 33009KT 300V360 9999 4300 +RA FEW029/// SCT049/// OVC056/// ///CB 16/13 Q1019 TEMPO 32015G25KT 4000 SHRA BKN014 FEW035CB BKN040TCU

TAF TAF LFMH
Valid from the 25 at 15:00 until the 26 at 15:00 UTC


251400Z 2515/2615 VRB04KT 9999 FEW035TCU BKN075
TEMPO 2515/2519 6000 SHRA BKN014 BKN032TCU
BECMG 2519/2522 BKN022
PROB40
TEMPO 2522/2610 -DZ BR BKN008
BECMG 2612/2615 30005KT SCT033
ATIS : +33 4 77 36 17 51
No reported NOTAMs for that airfield.
1 SIGMET reported for the Marseille FIR (LFMM) :
 
Embedded thunderstorms
LFMM SIGMET 4 VALID 251300/251500 LFPW
LFMM MARSEILLE FIR/UIR EMBD TS OBS WI N4215 E00315 - N4215 E00230 - N4300 E00230 - N4300 E00300 TOP FL350 MOV E 10KT NC=



MET'MAP, your aeronautical weather chart ! - Copyright ORBIFLY December 2007 - Disclaimer

ORBIFLY MET'MAP TEAM :

Programming & Development : Alexandra Zaïnal
Concept & Development : Baudouin d'Aumeries
Co-Development & Prog : Marc-Olivier Méhu
Technical & hardware support : Manuel Goepfert

Contact : metmap@orbifly.com




SOURCES & CREDITS :

   NOAA